Bircotes, United Kingdom
Current Conditions -  °F | °C
As of 9:50 PM on Wednesday 17 Dec 2014 (Local Time) from EGCN Reporting Station
Few Clouds Few Clouds  
Wind Chill: 50°   Ceiling: Unl
Heat Index: 50°   Visibility: 6mi
Dew Point: 48°   Wind: 6mph
Humidity: 94%   Direction: 210°SSW
Pressure: 29.68"   Gusts: NA
Location:  53.42°N, 1.05°W
Report Text: EGCN 172150Z 21005KT 190V260 9999 FEW010 10/09 Q1005
Loading
Personal Weather Stations






























Interactive Weather Map New forecast layout! Learn more

10-Day Weather Forecast

Advertisements
Track Severe Weather on mobile